createdAt,value
2022-12-29T00:02:25.629Z,7.28
2022-12-29T00:04:52.875Z,7.30
2022-12-29T00:07:20.161Z,7.31
2022-12-29T00:09:47.367Z,7.36
2022-12-29T00:12:14.609Z,7.35
2022-12-29T00:15:00.256Z,7.35
2022-12-29T00:17:27.441Z,7.41
2022-12-29T00:20:13.137Z,7.39
2022-12-29T00:22:59.481Z,7.41
2022-12-29T00:25:45.064Z,7.43
2022-12-29T00:28:30.971Z,7.48
2022-12-29T00:31:20.191Z,7.50
2022-12-29T00:34:05.927Z,7.49
2022-12-29T00:36:38.300Z,7.46
2022-12-29T00:39:28.689Z,7.47
2022-12-29T00:42:14.636Z,7.56
2022-12-29T00:44:41.831Z,7.56
2022-12-29T00:47:09.088Z,7.47
2022-12-29T00:49:36.268Z,7.43
2022-12-29T00:52:09.378Z,7.46
2022-12-29T00:54:38.627Z,7.45
2022-12-29T00:57:06.534Z,7.41
2022-12-29T00:59:36.499Z,7.44
2022-12-29T01:02:04.113Z,7.43
2022-12-29T01:04:31.448Z,7.44
2022-12-29T01:06:58.609Z,7.45
2022-12-29T01:09:44.270Z,7.47
2022-12-29T01:12:11.785Z,7.52
2022-12-29T01:14:39.433Z,7.52
2022-12-29T01:17:06.930Z,7.52
2022-12-29T01:19:34.609Z,7.58
2022-12-29T01:22:01.927Z,7.61
2022-12-29T01:24:29.213Z,7.60
2022-12-29T01:26:56.454Z,7.64
2022-12-29T01:29:24.132Z,7.61
2022-12-29T01:31:51.399Z,7.60
2022-12-29T01:34:18.954Z,7.55
2022-12-29T01:36:46.190Z,7.54
2022-12-29T01:39:13.352Z,7.51
2022-12-29T01:41:42.121Z,7.51
2022-12-29T01:44:48.375Z,7.49
2022-12-29T01:47:27.417Z,7.53
2022-12-29T01:49:56.994Z,7.46
2022-12-29T01:52:25.372Z,7.42
2022-12-29T01:54:54.541Z,7.45
2022-12-29T01:57:27.211Z,7.43
2022-12-29T02:00:10.356Z,7.41
2022-12-29T02:02:37.717Z,7.45
2022-12-29T02:05:12.906Z,7.51
2022-12-29T02:07:41.369Z,7.53
2022-12-29T02:10:08.771Z,7.58
2022-12-29T02:12:35.948Z,7.56
2022-12-29T02:15:03.708Z,7.60
2022-12-29T02:17:50.335Z,7.62
2022-12-29T02:20:39.198Z,7.68
2022-12-29T02:23:45.378Z,7.73
2022-12-29T02:26:24.427Z,7.75
2022-12-29T02:29:17.890Z,7.83
2022-12-29T02:32:07.534Z,7.85
2022-12-29T02:34:42.881Z,7.81
2022-12-29T02:37:45.415Z,7.85
2022-12-29T02:40:31.039Z,7.90
2022-12-29T02:43:35.501Z,8.02
2022-12-29T02:46:19.618Z,8.00
2022-12-29T02:48:57.857Z,8.06
2022-12-29T02:51:46.630Z,8.06
2022-12-29T02:54:32.314Z,8.07
2022-12-29T02:56:59.477Z,8.07
2022-12-29T02:59:26.679Z,8.13
2022-12-29T03:02:21.508Z,8.16
2022-12-29T03:05:09.313Z,8.16
2022-12-29T03:07:57.326Z,8.11
2022-12-29T03:11:01.373Z,8.20
2022-12-29T03:13:55.890Z,8.23
2022-12-29T03:16:43.887Z,8.25
2022-12-29T03:19:20.489Z,8.33
2022-12-29T03:22:09.860Z,8.35
2022-12-29T03:24:41.888Z,8.32
2022-12-29T03:27:12.137Z,8.35
2022-12-29T03:29:43.965Z,8.33
2022-12-29T03:32:13.931Z,8.36
2022-12-29T03:34:41.650Z,8.40
2022-12-29T03:37:13.931Z,8.36
2022-12-29T03:39:41.538Z,8.39
2022-12-29T03:42:14.250Z,8.38
2022-12-29T03:44:44.183Z,8.35
2022-12-29T03:47:12.812Z,8.39
2022-12-29T03:49:39.999Z,8.43
2022-12-29T03:52:07.469Z,8.39
2022-12-29T03:54:34.732Z,8.44
2022-12-29T03:57:01.960Z,8.50
2022-12-29T03:59:29.113Z,8.50
2022-12-29T04:01:56.350Z,8.47
2022-12-29T04:04:23.819Z,8.50
2022-12-29T04:06:50.969Z,8.48
2022-12-29T04:09:18.141Z,8.46
2022-12-29T04:11:45.375Z,8.50
2022-12-29T04:14:12.575Z,8.48
2022-12-29T04:16:39.967Z,8.52
2022-12-29T04:19:08.425Z,8.54
2022-12-29T04:21:35.713Z,8.51
2022-12-29T04:24:02.987Z,8.52
2022-12-29T04:26:30.221Z,8.54
2022-12-29T04:28:57.380Z,8.53
2022-12-29T04:31:24.648Z,8.56
2022-12-29T04:33:51.870Z,8.55
2022-12-29T04:36:19.018Z,8.53
2022-12-29T04:38:46.242Z,8.52
2022-12-29T04:41:13.454Z,8.59
2022-12-29T04:43:40.619Z,8.62
2022-12-29T04:46:07.839Z,8.63
2022-12-29T04:48:35.071Z,8.70
2022-12-29T04:51:02.258Z,8.72
2022-12-29T04:53:29.449Z,8.73
2022-12-29T04:55:56.677Z,8.76
2022-12-29T04:58:23.917Z,8.74
2022-12-29T05:00:52.556Z,8.81
2022-12-29T05:03:19.916Z,8.80
2022-12-29T05:05:47.166Z,8.76
2022-12-29T05:08:14.334Z,8.79
2022-12-29T05:10:41.827Z,8.78
2022-12-29T05:13:09.038Z,8.84
2022-12-29T05:15:36.266Z,8.92
2022-12-29T05:18:03.513Z,8.94
2022-12-29T05:20:30.658Z,8.98
2022-12-29T05:22:57.861Z,8.98
2022-12-29T05:25:25.050Z,8.95
2022-12-29T05:27:52.219Z,8.99
2022-12-29T05:30:19.378Z,9.04
2022-12-29T05:32:46.563Z,9.04
2022-12-29T05:35:13.855Z,9.06
2022-12-29T05:37:41.778Z,9.12
2022-12-29T05:40:09.516Z,9.14
2022-12-29T05:42:36.686Z,9.15
2022-12-29T05:45:04.192Z,9.17
2022-12-29T05:47:31.364Z,9.24
2022-12-29T05:49:58.519Z,9.23
2022-12-29T05:52:25.666Z,9.19
2022-12-29T05:54:52.955Z,9.23
2022-12-29T05:57:20.154Z,9.27
2022-12-29T05:59:47.346Z,9.25
2022-12-29T06:02:14.743Z,9.25
2022-12-29T06:04:42.033Z,9.25
2022-12-29T06:07:09.178Z,9.30
2022-12-29T06:09:36.347Z,9.30
2022-12-29T06:12:03.506Z,9.33
2022-12-29T06:14:30.701Z,9.27
2022-12-29T06:16:57.900Z,9.28
2022-12-29T06:19:25.074Z,9.28
2022-12-29T06:21:53.540Z,9.29
2022-12-29T06:24:20.761Z,9.33
2022-12-29T06:26:47.931Z,9.35
2022-12-29T06:29:18.041Z,9.37
2022-12-29T06:31:49.706Z,9.38
2022-12-29T06:34:17.162Z,9.31
2022-12-29T06:36:44.511Z,9.37
2022-12-29T06:39:12.239Z,9.31
2022-12-29T06:41:39.415Z,9.27
2022-12-29T06:44:06.616Z,9.24
2022-12-29T06:46:33.930Z,9.20
2022-12-29T06:49:01.191Z,9.21
2022-12-29T06:51:28.345Z,9.27
2022-12-29T06:53:55.598Z,9.23
2022-12-29T06:56:22.840Z,9.21
2022-12-29T06:58:50.113Z,9.23
2022-12-29T07:01:17.416Z,9.14
2022-12-29T07:03:44.705Z,9.04
2022-12-29T07:06:12.136Z,9.01
2022-12-29T07:08:39.550Z,9.02
2022-12-29T07:11:07.219Z,9.02
2022-12-29T07:13:34.416Z,9.03
2022-12-29T07:16:05.725Z,8.95
2022-12-29T07:18:32.902Z,8.94
2022-12-29T07:21:00.106Z,8.96
2022-12-29T07:23:27.376Z,8.91
2022-12-29T07:26:05.515Z,8.88
2022-12-29T07:28:33.236Z,8.86
2022-12-29T07:31:00.980Z,8.89
2022-12-29T07:33:30.513Z,8.95
2022-12-29T07:35:58.162Z,9.00
2022-12-29T07:38:25.405Z,8.93
2022-12-29T07:40:52.808Z,8.93
2022-12-29T07:43:19.977Z,8.96
2022-12-29T07:45:47.220Z,9.03
2022-12-29T07:48:14.403Z,9.12
2022-12-29T07:50:41.607Z,9.11
2022-12-29T07:53:09.173Z,9.12
2022-12-29T07:55:36.522Z,9.17
2022-12-29T07:58:03.742Z,9.18
2022-12-29T08:00:31.077Z,9.22
2022-12-29T08:02:58.262Z,9.27
2022-12-29T08:05:25.444Z,9.29
2022-12-29T08:07:52.870Z,9.32
2022-12-29T08:10:20.103Z,9.33
2022-12-29T08:12:47.268Z,9.40
2022-12-29T08:15:14.456Z,9.45
2022-12-29T08:17:41.701Z,9.38
2022-12-29T08:20:09.479Z,9.27
2022-12-29T08:22:36.784Z,9.19
2022-12-29T08:25:04.587Z,9.23
2022-12-29T08:27:31.758Z,9.22
2022-12-29T08:30:00.937Z,9.26
2022-12-29T08:32:29.344Z,9.26
2022-12-29T08:34:56.617Z,9.21
2022-12-29T08:37:29.050Z,9.18
2022-12-29T08:39:59.640Z,9.20
2022-12-29T08:42:31.790Z,9.23
2022-12-29T08:44:59.821Z,9.30
2022-12-29T08:47:27.197Z,9.35
2022-12-29T08:49:54.568Z,9.41
2022-12-29T08:52:21.866Z,9.51
2022-12-29T08:54:49.046Z,9.57
2022-12-29T08:57:16.222Z,9.69
2022-12-29T08:59:43.592Z,9.74
2022-12-29T09:02:17.504Z,9.77
2022-12-29T09:04:47.673Z,9.80
2022-12-29T09:07:14.921Z,9.68
2022-12-29T09:09:42.121Z,9.68
2022-12-29T09:12:09.549Z,9.65
2022-12-29T09:14:36.747Z,9.65
2022-12-29T09:17:22.448Z,9.71
2022-12-29T09:19:49.621Z,9.78
2022-12-29T09:22:16.798Z,9.90
2022-12-29T09:24:44.019Z,9.95
2022-12-29T09:27:11.180Z,10.06
2022-12-29T09:29:38.371Z,10.13
2022-12-29T09:32:07.771Z,10.19
2022-12-29T09:34:35.400Z,10.11
2022-12-29T09:37:02.575Z,10.20
2022-12-29T09:39:29.760Z,10.37
2022-12-29T09:42:21.029Z,10.61
2022-12-29T09:45:09.845Z,10.72
2022-12-29T09:47:37.196Z,10.76
2022-12-29T09:50:25.935Z,10.86
2022-12-29T09:53:09.220Z,11.07
2022-12-29T09:55:37.613Z,11.23
2022-12-29T09:58:31.095Z,11.24
2022-12-29T10:01:06.129Z,11.40
2022-12-29T10:03:49.846Z,11.42
2022-12-29T10:06:27.964Z,11.75
2022-12-29T10:08:59.592Z,11.67
2022-12-29T10:11:50.490Z,11.75
2022-12-29T10:14:33.834Z,11.77
2022-12-29T10:17:26.448Z,11.80
2022-12-29T10:20:15.833Z,11.89
2022-12-29T10:23:09.278Z,12.09
2022-12-29T10:25:39.835Z,12.23
2022-12-29T10:28:18.797Z,12.20
2022-12-29T10:30:48.483Z,12.17
2022-12-29T10:33:20.304Z,12.04
2022-12-29T10:35:49.324Z,11.92
2022-12-29T10:38:43.510Z,11.98
2022-12-29T10:41:18.192Z,12.00
2022-12-29T10:43:54.175Z,12.05
2022-12-29T10:46:30.402Z,11.92
2022-12-29T10:48:57.655Z,11.91
2022-12-29T10:51:34.923Z,11.86
2022-12-29T10:54:17.634Z,11.84
2022-12-29T10:56:53.115Z,11.78
2022-12-29T10:59:25.672Z,11.78
2022-12-29T11:02:05.895Z,11.77
2022-12-29T11:04:50.155Z,11.77
2022-12-29T11:07:25.090Z,11.71
2022-12-29T11:09:54.551Z,11.63
2022-12-29T11:12:29.829Z,11.51
2022-12-29T11:15:08.804Z,11.47
2022-12-29T11:17:53.211Z,11.41
2022-12-29T11:20:31.043Z,11.34
2022-12-29T11:22:58.787Z,11.24
2022-12-29T11:25:26.057Z,11.13
2022-12-29T11:28:03.297Z,11.04
2022-12-29T11:30:32.527Z,10.96
2022-12-29T11:32:59.682Z,10.83
2022-12-29T11:35:42.316Z,10.81
2022-12-29T11:38:24.859Z,10.82
2022-12-29T11:40:52.282Z,10.85
2022-12-29T11:43:34.399Z,10.76
2022-12-29T11:46:04.536Z,10.65
2022-12-29T11:48:41.413Z,10.53
2022-12-29T11:51:09.126Z,10.37
2022-12-29T11:53:48.619Z,10.23
2022-12-29T11:56:17.888Z,10.18
2022-12-29T11:58:45.026Z,10.08
2022-12-29T12:01:18.239Z,10.09
2022-12-29T12:04:02.591Z,10.07
2022-12-29T12:06:32.100Z,10.01
2022-12-29T12:09:09.474Z,10.00
2022-12-29T12:11:39.032Z,9.92
2022-12-29T12:14:27.837Z,9.89
2022-12-29T12:16:58.261Z,9.91
2022-12-29T12:19:48.412Z,9.92
2022-12-29T12:22:32.381Z,9.86
2022-12-29T12:25:30.604Z,9.82
2022-12-29T12:28:01.907Z,9.78
2022-12-29T12:30:31.615Z,9.74
2022-12-29T12:33:19.332Z,9.70
2022-12-29T12:36:07.594Z,9.69
2022-12-29T12:39:03.799Z,9.62
2022-12-29T12:41:46.107Z,9.64
2022-12-29T12:44:27.567Z,9.69
2022-12-29T12:46:54.879Z,9.64
2022-12-29T12:49:51.148Z,9.60
2022-12-29T12:52:44.526Z,9.56
2022-12-29T12:55:36.622Z,9.66
2022-12-29T12:58:11.840Z,9.70
2022-12-29T13:00:53.323Z,9.67
2022-12-29T13:03:36.917Z,9.61
2022-12-29T13:06:38.493Z,9.58
2022-12-29T13:09:27.713Z,9.51
2022-12-29T13:12:09.823Z,9.46
2022-12-29T13:14:57.018Z,9.51
2022-12-29T13:17:53.486Z,9.54
2022-12-29T13:20:32.132Z,9.52
2022-12-29T13:23:32.364Z,9.51
2022-12-29T13:26:16.029Z,9.51
2022-12-29T13:29:19.712Z,9.51
2022-12-29T13:31:57.417Z,9.50
2022-12-29T13:34:56.163Z,9.51
2022-12-29T13:37:27.327Z,9.54
2022-12-29T13:40:01.678Z,9.54
2022-12-29T13:42:29.678Z,9.51
2022-12-29T13:45:02.034Z,9.49
2022-12-29T13:47:40.435Z,9.52
2022-12-29T13:50:16.974Z,9.50
2022-12-29T13:52:50.668Z,9.54
2022-12-29T13:55:37.506Z,9.52
2022-12-29T13:58:19.593Z,9.50
2022-12-29T14:00:58.613Z,9.49
2022-12-29T14:03:45.798Z,9.48
2022-12-29T14:06:18.597Z,9.48
2022-12-29T14:08:46.297Z,9.45
2022-12-29T14:11:16.209Z,9.45
2022-12-29T14:13:45.927Z,9.45
2022-12-29T14:16:33.933Z,9.45
2022-12-29T14:19:19.066Z,9.41
2022-12-29T14:22:12.850Z,9.40
2022-12-29T14:24:42.856Z,9.38
2022-12-29T14:27:15.680Z,9.39
2022-12-29T14:29:42.755Z,9.39
2022-12-29T14:32:27.904Z,9.40
2022-12-29T14:34:56.373Z,9.42
2022-12-29T14:37:34.397Z,9.46
2022-12-29T14:40:07.791Z,9.44
2022-12-29T14:42:35.605Z,9.43
2022-12-29T14:45:14.839Z,9.45
2022-12-29T14:47:45.737Z,9.43
2022-12-29T14:50:17.313Z,9.45
2022-12-29T14:53:00.038Z,9.44
2022-12-29T14:55:44.294Z,9.47
2022-12-29T14:58:17.665Z,9.52
2022-12-29T15:00:46.324Z,9.63
2022-12-29T15:03:23.980Z,9.68
2022-12-29T15:06:12.094Z,9.75
2022-12-29T15:08:53.319Z,9.79
2022-12-29T15:11:26.004Z,9.73
2022-12-29T15:13:53.809Z,9.68
2022-12-29T15:16:30.529Z,9.64
2022-12-29T15:18:58.099Z,9.61
2022-12-29T15:21:33.204Z,9.47
2022-12-29T15:24:00.632Z,9.38
2022-12-29T15:26:39.390Z,9.32
2022-12-29T15:29:06.582Z,9.24
2022-12-29T15:31:33.776Z,9.19
2022-12-29T15:34:12.007Z,9.18
2022-12-29T15:36:41.054Z,8.99
2022-12-29T15:39:21.935Z,9.03
2022-12-29T15:42:00.567Z,9.00
2022-12-29T15:44:46.009Z,9.08
2022-12-29T15:47:19.491Z,9.14
2022-12-29T15:49:50.441Z,9.13
2022-12-29T15:52:20.464Z,9.07
2022-12-29T15:54:52.837Z,9.05
2022-12-29T15:57:25.807Z,9.06
2022-12-29T15:59:54.769Z,9.05
2022-12-29T16:02:24.072Z,8.99
2022-12-29T16:07:41.947Z,8.98
2022-12-29T16:10:31.320Z,9.00
2022-12-29T16:13:11.554Z,8.99
2022-12-29T16:15:38.756Z,8.93
2022-12-29T16:18:06.341Z,8.96
2022-12-29T16:20:41.293Z,8.94
2022-12-29T16:23:19.200Z,9.03
2022-12-29T16:25:46.722Z,9.00
2022-12-29T16:28:36.302Z,8.97
2022-12-29T16:31:08.033Z,8.94
2022-12-29T16:33:44.270Z,8.95
2022-12-29T16:36:31.369Z,8.92
2022-12-29T16:39:23.025Z,8.96
2022-12-29T16:41:51.210Z,8.88
2022-12-29T16:44:27.503Z,8.83
2022-12-29T16:47:13.096Z,8.80
2022-12-29T16:49:43.296Z,8.79
2022-12-29T16:52:24.138Z,8.72
2022-12-29T16:54:56.723Z,8.70
2022-12-29T16:57:32.977Z,8.63
2022-12-29T17:00:03.777Z,8.65
2022-12-29T17:02:32.630Z,8.73
2022-12-29T17:04:59.951Z,8.92
2022-12-29T17:07:29.111Z,9.06
2022-12-29T17:09:56.349Z,9.08
2022-12-29T17:12:28.858Z,9.13
2022-12-29T17:15:03.183Z,9.12
2022-12-29T17:17:42.593Z,9.19
2022-12-29T17:20:19.018Z,9.18
2022-12-29T17:22:46.559Z,9.06
2022-12-29T17:25:19.133Z,8.99
2022-12-29T17:27:58.845Z,8.92
2022-12-29T17:30:32.926Z,8.93
2022-12-29T17:33:03.321Z,8.97
2022-12-29T17:35:30.673Z,8.88
2022-12-29T17:37:58.053Z,8.89
2022-12-29T17:40:29.409Z,8.89
2022-12-29T17:42:58.326Z,8.84
2022-12-29T17:45:27.602Z,8.86
2022-12-29T17:47:55.095Z,8.79
2022-12-29T17:50:26.793Z,8.61
2022-12-29T17:53:01.095Z,8.54
2022-12-29T17:55:36.673Z,8.52
2022-12-29T17:58:19.051Z,8.45
2022-12-29T18:00:47.754Z,8.40
2022-12-29T18:03:17.003Z,8.39
2022-12-29T18:05:44.447Z,8.33
2022-12-29T18:08:12.534Z,8.26
2022-12-29T18:10:40.338Z,8.32
2022-12-29T18:13:09.338Z,8.40
2022-12-29T18:15:37.627Z,8.42
2022-12-29T18:18:14.138Z,8.42
2022-12-29T18:20:43.087Z,8.36
2022-12-29T18:23:22.024Z,8.36
2022-12-29T18:26:04.521Z,8.38
2022-12-29T18:28:31.721Z,8.40
2022-12-29T18:31:01.434Z,8.41
2022-12-29T18:33:29.851Z,8.44
2022-12-29T18:36:04.735Z,8.49
2022-12-29T18:38:32.190Z,8.49
2022-12-29T18:40:59.738Z,8.50
2022-12-29T18:43:26.966Z,8.52
2022-12-29T18:45:54.128Z,8.52
2022-12-29T18:48:21.733Z,8.44
2022-12-29T18:50:53.291Z,8.34
2022-12-29T18:53:23.516Z,8.27
2022-12-29T18:55:51.637Z,8.20
2022-12-29T18:58:19.146Z,8.16
2022-12-29T19:00:46.896Z,8.11
2022-12-29T19:03:16.408Z,8.04
2022-12-29T19:05:44.913Z,7.97
2022-12-29T19:08:12.746Z,7.94
2022-12-29T19:10:40.709Z,7.95
2022-12-29T19:13:10.034Z,7.96
2022-12-29T19:15:40.071Z,7.82
2022-12-29T19:18:43.069Z,7.82
2022-12-29T19:20:58.152Z,7.83
2022-12-29T19:23:26.701Z,7.85
2022-12-29T19:25:55.308Z,7.90
2022-12-29T19:28:25.172Z,8.00
2022-12-29T19:30:57.003Z,8.10
2022-12-29T19:33:24.923Z,8.22
2022-12-29T19:35:52.994Z,8.31
2022-12-29T19:38:20.665Z,8.36
2022-12-29T19:40:50.538Z,8.41
2022-12-29T19:43:18.717Z,8.41
2022-12-29T19:45:46.376Z,8.40
2022-12-29T19:48:20.179Z,8.37
2022-12-29T19:50:47.556Z,8.43
2022-12-29T19:53:15.020Z,8.52
2022-12-29T19:55:44.013Z,8.56
2022-12-29T19:58:11.666Z,8.56
2022-12-29T20:00:40.618Z,8.53
2022-12-29T20:03:08.064Z,8.56
2022-12-29T20:05:35.529Z,8.54
2022-12-29T20:08:03.072Z,8.57
2022-12-29T20:10:30.247Z,8.58
2022-12-29T20:12:57.548Z,8.64
2022-12-29T20:15:25.096Z,8.57
2022-12-29T20:20:39.548Z,8.59
2022-12-29T20:23:06.754Z,8.65
2022-12-29T20:25:44.862Z,8.69
2022-12-29T20:28:13.384Z,8.78
2022-12-29T20:30:40.768Z,8.77
2022-12-29T20:33:08.906Z,8.77
2022-12-29T20:35:36.809Z,8.77
2022-12-29T20:38:04.666Z,8.80
2022-12-29T20:40:32.564Z,8.83
2022-12-29T20:42:59.761Z,8.81
2022-12-29T20:45:27.002Z,8.73
2022-12-29T20:47:54.753Z,8.74
2022-12-29T20:50:22.059Z,8.74
2022-12-29T20:52:49.283Z,8.71
2022-12-29T20:55:16.614Z,8.67
2022-12-29T20:58:21.986Z,8.71
2022-12-29T21:00:32.716Z,8.73
2022-12-29T21:03:01.048Z,8.73
2022-12-29T21:05:29.494Z,8.66
2022-12-29T21:07:59.571Z,8.65
2022-12-29T21:10:26.858Z,8.63
2022-12-29T21:12:54.081Z,8.61
2022-12-29T21:15:21.862Z,8.67
2022-12-29T21:17:49.283Z,8.69
2022-12-29T21:20:20.048Z,8.58
2022-12-29T21:22:50.353Z,8.56
2022-12-29T21:25:17.885Z,8.39
2022-12-29T21:27:45.115Z,8.23
2022-12-29T21:30:13.266Z,8.16
2022-12-29T21:32:41.541Z,8.14
2022-12-29T21:35:09.556Z,8.07
2022-12-29T21:37:37.417Z,8.03
2022-12-29T21:40:05.932Z,8.05
2022-12-29T21:42:33.138Z,7.99
2022-12-29T21:45:21.094Z,7.92
2022-12-29T21:48:07.649Z,7.83
2022-12-29T21:51:01.243Z,7.78
2022-12-29T21:53:40.554Z,7.80
2022-12-29T21:56:09.479Z,7.75
2022-12-29T21:58:56.859Z,7.67
2022-12-29T22:01:43.553Z,7.69
2022-12-29T22:04:34.484Z,7.68
2022-12-29T22:07:21.852Z,7.74
2022-12-29T22:10:08.072Z,7.70
2022-12-29T22:12:54.135Z,7.64
2022-12-29T22:15:21.407Z,7.55
2022-12-29T22:17:53.975Z,7.46
2022-12-29T22:20:23.829Z,7.45
2022-12-29T22:22:51.116Z,7.40
2022-12-29T22:25:18.416Z,7.37
2022-12-29T22:27:45.651Z,7.37
2022-12-29T22:30:13.622Z,7.42
2022-12-29T22:32:40.966Z,7.38
2022-12-29T22:35:10.130Z,7.34
2022-12-29T22:37:39.633Z,7.36
2022-12-29T22:40:09.702Z,7.33
2022-12-29T22:42:37.253Z,7.26
2022-12-29T22:45:04.952Z,7.35
2022-12-29T22:47:32.169Z,7.33
2022-12-29T22:50:00.380Z,7.33
2022-12-29T22:52:27.612Z,7.33
2022-12-29T22:54:54.847Z,7.42
2022-12-29T22:57:22.023Z,7.47
2022-12-29T22:59:49.245Z,7.57
2022-12-29T23:02:17.003Z,7.61
2022-12-29T23:05:02.905Z,7.64
2022-12-29T23:07:31.601Z,7.65
2022-12-29T23:09:58.992Z,7.67
2022-12-29T23:12:28.800Z,7.69
2022-12-29T23:14:56.306Z,7.63
2022-12-29T23:17:25.081Z,7.64
2022-12-29T23:19:52.367Z,7.66
2022-12-29T23:22:19.880Z,7.61
2022-12-29T23:24:47.090Z,7.64
2022-12-29T23:27:14.302Z,7.73
2022-12-29T23:29:41.560Z,7.75
2022-12-29T23:32:08.818Z,7.75
2022-12-29T23:34:36.053Z,7.84
2022-12-29T23:37:03.274Z,7.67
2022-12-29T23:39:30.694Z,7.62
2022-12-29T23:41:58.111Z,7.63
2022-12-29T23:44:25.317Z,7.50
2022-12-29T23:46:52.790Z,7.43
2022-12-29T23:49:20.077Z,7.46
2022-12-29T23:51:47.298Z,7.54
2022-12-29T23:54:14.806Z,7.53
2022-12-29T23:56:42.032Z,7.56
2022-12-29T23:59:09.215Z,7.62
